sensor_id;sensor_type;location;lat;lon;timestamp;P1;durP1;ratioP1;P2;durP2;ratioP2
21297;SDS011;10808;48.010;11.326;2022-08-18T00:00:27;9.93;;;7.88;;
21297;SDS011;10808;48.010;11.326;2022-08-18T00:02:53;10.07;;;8.18;;
21297;SDS011;10808;48.010;11.326;2022-08-18T00:05:24;9.10;;;7.80;;
21297;SDS011;10808;48.010;11.326;2022-08-18T00:07:50;11.70;;;8.00;;
21297;SDS011;10808;48.010;11.326;2022-08-18T00:10:16;9.68;;;7.82;;
21297;SDS011;10808;48.010;11.326;2022-08-18T00:12:42;8.98;;;7.68;;
21297;SDS011;10808;48.010;11.326;2022-08-18T00:15:11;10.27;;;7.55;;
21297;SDS011;10808;48.010;11.326;2022-08-18T00:17:39;8.10;;;7.30;;
21297;SDS011;10808;48.010;11.326;2022-08-18T00:20:07;7.97;;;7.10;;
21297;SDS011;10808;48.010;11.326;2022-08-18T00:22:36;8.40;;;7.55;;
21297;SDS011;10808;48.010;11.326;2022-08-18T00:25:04;8.05;;;7.25;;
21297;SDS011;10808;48.010;11.326;2022-08-18T00:27:34;8.52;;;7.25;;
21297;SDS011;10808;48.010;11.326;2022-08-18T00:30:07;8.23;;;6.70;;
21297;SDS011;10808;48.010;11.326;2022-08-18T00:32:38;8.95;;;6.95;;
21297;SDS011;10808;48.010;11.326;2022-08-18T00:35:29;9.30;;;7.10;;
21297;SDS011;10808;48.010;11.326;2022-08-18T00:37:57;8.55;;;7.18;;
21297;SDS011;10808;48.010;11.326;2022-08-18T00:40:28;7.32;;;6.63;;
21297;SDS011;10808;48.010;11.326;2022-08-18T00:42:59;9.77;;;7.10;;
21297;SDS011;10808;48.010;11.326;2022-08-18T00:45:28;7.82;;;7.00;;
21297;SDS011;10808;48.010;11.326;2022-08-18T00:48:01;8.45;;;7.00;;
21297;SDS011;10808;48.010;11.326;2022-08-18T00:50:34;7.65;;;6.43;;
21297;SDS011;10808;48.010;11.326;2022-08-18T00:53:12;7.47;;;6.60;;
21297;SDS011;10808;48.010;11.326;2022-08-18T00:55:44;6.93;;;6.20;;
21297;SDS011;10808;48.010;11.326;2022-08-18T00:58:36;8.55;;;6.57;;
21297;SDS011;10808;48.010;11.326;2022-08-18T01:01:23;7.35;;;6.47;;
21297;SDS011;10808;48.010;11.326;2022-08-18T01:03:55;7.70;;;6.72;;
21297;SDS011;10808;48.010;11.326;2022-08-18T01:09:06;8.60;;;6.72;;
21297;SDS011;10808;48.010;11.326;2022-08-18T01:11:34;7.50;;;6.70;;
21297;SDS011;10808;48.010;11.326;2022-08-18T01:14:05;7.47;;;6.72;;
21297;SDS011;10808;48.010;11.326;2022-08-18T01:16:33;8.30;;;6.97;;
21297;SDS011;10808;48.010;11.326;2022-08-18T01:19:18;7.10;;;6.13;;
21297;SDS011;10808;48.010;11.326;2022-08-18T01:22:26;8.63;;;6.40;;
21297;SDS011;10808;48.010;11.326;2022-08-18T01:24:54;7.53;;;6.25;;
21297;SDS011;10808;48.010;11.326;2022-08-18T01:27:41;7.32;;;6.40;;
21297;SDS011;10808;48.010;11.326;2022-08-18T01:30:09;6.93;;;6.22;;
21297;SDS011;10808;48.010;11.326;2022-08-18T01:32:38;7.05;;;6.25;;
21297;SDS011;10808;48.010;11.326;2022-08-18T01:35:06;6.83;;;6.23;;
21297;SDS011;10808;48.010;11.326;2022-08-18T01:37:34;6.43;;;5.53;;
21297;SDS011;10808;48.010;11.326;2022-08-18T01:40:03;6.95;;;6.18;;
21297;SDS011;10808;48.010;11.326;2022-08-18T01:42:31;7.78;;;6.47;;
21297;SDS011;10808;48.010;11.326;2022-08-18T01:44:57;6.50;;;5.87;;
21297;SDS011;10808;48.010;11.326;2022-08-18T01:47:23;7.17;;;5.87;;
21297;SDS011;10808;48.010;11.326;2022-08-18T01:49:49;6.47;;;5.88;;
21297;SDS011;10808;48.010;11.326;2022-08-18T01:52:18;6.93;;;5.63;;
21297;SDS011;10808;48.010;11.326;2022-08-18T01:54:46;6.50;;;5.72;;
21297;SDS011;10808;48.010;11.326;2022-08-18T01:57:14;6.13;;;5.50;;
21297;SDS011;10808;48.010;11.326;2022-08-18T01:59:41;6.97;;;5.80;;
21297;SDS011;10808;48.010;11.326;2022-08-18T02:02:09;7.18;;;5.78;;
21297;SDS011;10808;48.010;11.326;2022-08-18T02:04:39;6.30;;;5.68;;
21297;SDS011;10808;48.010;11.326;2022-08-18T02:07:08;6.25;;;5.65;;
21297;SDS011;10808;48.010;11.326;2022-08-18T02:09:36;7.33;;;5.80;;
21297;SDS011;10808;48.010;11.326;2022-08-18T02:12:04;8.65;;;6.03;;
21297;SDS011;10808;48.010;11.326;2022-08-18T02:14:32;6.93;;;5.60;;
21297;SDS011;10808;48.010;11.326;2022-08-18T02:17:00;6.20;;;5.60;;
21297;SDS011;10808;48.010;11.326;2022-08-18T02:19:26;7.10;;;5.90;;
21297;SDS011;10808;48.010;11.326;2022-08-18T02:21:52;7.13;;;5.33;;
21297;SDS011;10808;48.010;11.326;2022-08-18T02:24:19;5.83;;;5.27;;
21297;SDS011;10808;48.010;11.326;2022-08-18T02:26:45;6.73;;;5.37;;
21297;SDS011;10808;48.010;11.326;2022-08-18T02:29:11;6.00;;;5.40;;
21297;SDS011;10808;48.010;11.326;2022-08-18T02:31:37;6.35;;;5.65;;
21297;SDS011;10808;48.010;11.326;2022-08-18T02:34:03;5.93;;;5.28;;
21297;SDS011;10808;48.010;11.326;2022-08-18T02:36:29;5.85;;;5.25;;
21297;SDS011;10808;48.010;11.326;2022-08-18T02:38:56;5.65;;;5.15;;
21297;SDS011;10808;48.010;11.326;2022-08-18T02:41:22;6.03;;;5.07;;
21297;SDS011;10808;48.010;11.326;2022-08-18T02:43:50;5.60;;;5.10;;
21297;SDS011;10808;48.010;11.326;2022-08-18T02:46:17;6.00;;;5.35;;
21297;SDS011;10808;48.010;11.326;2022-08-18T02:48:43;6.72;;;5.40;;
21297;SDS011;10808;48.010;11.326;2022-08-18T02:51:11;6.15;;;5.55;;
21297;SDS011;10808;48.010;11.326;2022-08-18T02:53:39;7.37;;;5.20;;
21297;SDS011;10808;48.010;11.326;2022-08-18T02:58:51;7.78;;;5.70;;
21297;SDS011;10808;48.010;11.326;2022-08-18T03:01:23;6.53;;;5.07;;
21297;SDS011;10808;48.010;11.326;2022-08-18T03:03:52;5.70;;;5.15;;
21297;SDS011;10808;48.010;11.326;2022-08-18T03:06:20;5.75;;;5.25;;
21297;SDS011;10808;48.010;11.326;2022-08-18T03:08:47;6.28;;;5.07;;
21297;SDS011;10808;48.010;11.326;2022-08-18T03:11:18;5.32;;;4.75;;
21297;SDS011;10808;48.010;11.326;2022-08-18T03:13:48;5.20;;;4.70;;
21297;SDS011;10808;48.010;11.326;2022-08-18T03:16:14;5.50;;;5.00;;
21297;SDS011;10808;48.010;11.326;2022-08-18T03:18:41;5.43;;;4.82;;
21297;SDS011;10808;48.010;11.326;2022-08-18T03:21:10;5.72;;;5.10;;
21297;SDS011;10808;48.010;11.326;2022-08-18T03:23:38;5.78;;;5.18;;
21297;SDS011;10808;48.010;11.326;2022-08-18T03:26:06;5.55;;;5.05;;
21297;SDS011;10808;48.010;11.326;2022-08-18T03:28:37;5.85;;;5.03;;
21297;SDS011;10808;48.010;11.326;2022-08-18T03:31:05;5.93;;;5.13;;
21297;SDS011;10808;48.010;11.326;2022-08-18T03:33:32;6.50;;;5.20;;
21297;SDS011;10808;48.010;11.326;2022-08-18T03:36:05;5.95;;;5.35;;
21297;SDS011;10808;48.010;11.326;2022-08-18T03:38:33;5.28;;;4.80;;
21297;SDS011;10808;48.010;11.326;2022-08-18T03:41:00;8.50;;;5.20;;
21297;SDS011;10808;48.010;11.326;2022-08-18T03:43:26;5.45;;;4.95;;
21297;SDS011;10808;48.010;11.326;2022-08-18T03:45:53;5.60;;;4.97;;
21297;SDS011;10808;48.010;11.326;2022-08-18T03:48:19;5.70;;;4.97;;
21297;SDS011;10808;48.010;11.326;2022-08-18T03:50:46;7.70;;;5.15;;
21297;SDS011;10808;48.010;11.326;2022-08-18T03:53:13;5.43;;;4.93;;
21297;SDS011;10808;48.010;11.326;2022-08-18T03:55:39;6.47;;;5.18;;
21297;SDS011;10808;48.010;11.326;2022-08-18T03:58:06;5.72;;;5.13;;
21297;SDS011;10808;48.010;11.326;2022-08-18T04:00:36;5.85;;;5.03;;
21297;SDS011;10808;48.010;11.326;2022-08-18T04:03:02;6.00;;;5.30;;
21297;SDS011;10808;48.010;11.326;2022-08-18T04:05:29;6.10;;;5.05;;
21297;SDS011;10808;48.010;11.326;2022-08-18T04:07:55;5.35;;;4.80;;
21297;SDS011;10808;48.010;11.326;2022-08-18T04:10:22;5.82;;;5.22;;
21297;SDS011;10808;48.010;11.326;2022-08-18T04:12:49;5.65;;;4.90;;
21297;SDS011;10808;48.010;11.326;2022-08-18T04:15:16;9.50;;;6.00;;
21297;SDS011;10808;48.010;11.326;2022-08-18T04:17:42;5.90;;;5.10;;
21297;SDS011;10808;48.010;11.326;2022-08-18T04:20:11;5.70;;;5.07;;
21297;SDS011;10808;48.010;11.326;2022-08-18T04:22:38;5.40;;;4.90;;
21297;SDS011;10808;48.010;11.326;2022-08-18T04:25:05;5.65;;;4.75;;
21297;SDS011;10808;48.010;11.326;2022-08-18T04:27:34;6.15;;;5.20;;
21297;SDS011;10808;48.010;11.326;2022-08-18T04:30:01;5.88;;;5.28;;
21297;SDS011;10808;48.010;11.326;2022-08-18T04:32:29;7.72;;;5.55;;
21297;SDS011;10808;48.010;11.326;2022-08-18T04:34:55;7.03;;;5.18;;
21297;SDS011;10808;48.010;11.326;2022-08-18T04:37:21;5.30;;;4.80;;
21297;SDS011;10808;48.010;11.326;2022-08-18T04:39:47;5.60;;;5.10;;
21297;SDS011;10808;48.010;11.326;2022-08-18T04:42:13;6.05;;;5.45;;
21297;SDS011;10808;48.010;11.326;2022-08-18T04:44:40;6.75;;;5.18;;
21297;SDS011;10808;48.010;11.326;2022-08-18T04:47:06;7.40;;;5.80;;
21297;SDS011;10808;48.010;11.326;2022-08-18T04:49:33;5.90;;;5.30;;
21297;SDS011;10808;48.010;11.326;2022-08-18T04:52:00;8.30;;;5.63;;
21297;SDS011;10808;48.010;11.326;2022-08-18T04:54:47;6.80;;;5.15;;
21297;SDS011;10808;48.010;11.326;2022-08-18T04:57:14;6.15;;;5.55;;
21297;SDS011;10808;48.010;11.326;2022-08-18T04:59:43;6.95;;;5.60;;
21297;SDS011;10808;48.010;11.326;2022-08-18T05:02:11;6.60;;;5.80;;
21297;SDS011;10808;48.010;11.326;2022-08-18T05:04:40;6.45;;;5.32;;
21297;SDS011;10808;48.010;11.326;2022-08-18T05:07:12;5.80;;;5.10;;
21297;SDS011;10808;48.010;11.326;2022-08-18T05:09:40;6.43;;;5.65;;
21297;SDS011;10808;48.010;11.326;2022-08-18T05:12:07;6.15;;;5.55;;
21297;SDS011;10808;48.010;11.326;2022-08-18T05:14:36;5.70;;;5.20;;
21297;SDS011;10808;48.010;11.326;2022-08-18T05:17:03;6.10;;;5.13;;
21297;SDS011;10808;48.010;11.326;2022-08-18T05:19:30;6.72;;;5.32;;
21297;SDS011;10808;48.010;11.326;2022-08-18T05:21:57;5.70;;;5.13;;
21297;SDS011;10808;48.010;11.326;2022-08-18T05:24:24;5.57;;;5.05;;
21297;SDS011;10808;48.010;11.326;2022-08-18T05:26:52;6.70;;;5.05;;
21297;SDS011;10808;48.010;11.326;2022-08-18T05:29:19;6.53;;;5.43;;
21297;SDS011;10808;48.010;11.326;2022-08-18T05:31:50;5.55;;;5.05;;
21297;SDS011;10808;48.010;11.326;2022-08-18T05:34:18;5.30;;;4.80;;
21297;SDS011;10808;48.010;11.326;2022-08-18T05:42:14;6.50;;;5.07;;
21297;SDS011;10808;48.010;11.326;2022-08-18T05:44:47;4.80;;;4.40;;
21297;SDS011;10808;48.010;11.326;2022-08-18T05:47:25;5.05;;;4.53;;
21297;SDS011;10808;48.010;11.326;2022-08-18T05:49:57;5.85;;;4.50;;
21297;SDS011;10808;48.010;11.326;2022-08-18T05:52:32;5.20;;;4.70;;
21297;SDS011;10808;48.010;11.326;2022-08-18T05:55:04;4.90;;;4.40;;
21297;SDS011;10808;48.010;11.326;2022-08-18T05:58:02;6.80;;;5.07;;
21297;SDS011;10808;48.010;11.326;2022-08-18T06:00:33;5.05;;;4.57;;
21297;SDS011;10808;48.010;11.326;2022-08-18T06:03:05;5.28;;;4.78;;
21297;SDS011;10808;48.010;11.326;2022-08-18T06:05:55;4.95;;;4.55;;
21297;SDS011;10808;48.010;11.326;2022-08-18T06:08:47;5.35;;;4.85;;
21297;SDS011;10808;48.010;11.326;2022-08-18T06:11:20;5.40;;;4.90;;
21297;SDS011;10808;48.010;11.326;2022-08-18T06:13:47;5.32;;;4.82;;
21297;SDS011;10808;48.010;11.326;2022-08-18T06:16:21;5.22;;;4.72;;
21297;SDS011;10808;48.010;11.326;2022-08-18T06:22:00;5.33;;;4.83;;
21297;SDS011;10808;48.010;11.326;2022-08-18T06:24:37;5.88;;;5.10;;
21297;SDS011;10808;48.010;11.326;2022-08-18T06:35:31;5.70;;;5.20;;
21297;SDS011;10808;48.010;11.326;2022-08-18T06:41:02;7.15;;;5.50;;
21297;SDS011;10808;48.010;11.326;2022-08-18T06:43:36;7.13;;;5.30;;
21297;SDS011;10808;48.010;11.326;2022-08-18T06:46:09;5.77;;;5.10;;
21297;SDS011;10808;48.010;11.326;2022-08-18T06:48:55;6.05;;;5.40;;
21297;SDS011;10808;48.010;11.326;2022-08-18T06:51:28;5.75;;;5.13;;
21297;SDS011;10808;48.010;11.326;2022-08-18T06:54:00;6.83;;;5.33;;
21297;SDS011;10808;48.010;11.326;2022-08-18T06:56:43;6.13;;;5.32;;
21297;SDS011;10808;48.010;11.326;2022-08-18T06:59:18;6.20;;;5.22;;
21297;SDS011;10808;48.010;11.326;2022-08-18T07:01:58;5.78;;;5.18;;
21297;SDS011;10808;48.010;11.326;2022-08-18T07:05:05;6.20;;;5.05;;
21297;SDS011;10808;48.010;11.326;2022-08-18T07:07:40;6.45;;;5.00;;
21297;SDS011;10808;48.010;11.326;2022-08-18T07:12:39;5.35;;;4.85;;
21297;SDS011;10808;48.010;11.326;2022-08-18T07:15:05;5.80;;;5.30;;
21297;SDS011;10808;48.010;11.326;2022-08-18T07:17:33;5.63;;;4.93;;
21297;SDS011;10808;48.010;11.326;2022-08-18T07:22:31;5.20;;;4.70;;
21297;SDS011;10808;48.010;11.326;2022-08-18T07:25:27;6.35;;;5.03;;
21297;SDS011;10808;48.010;11.326;2022-08-18T07:28:03;5.23;;;4.73;;
21297;SDS011;10808;48.010;11.326;2022-08-18T07:30:34;5.28;;;4.78;;
21297;SDS011;10808;48.010;11.326;2022-08-18T07:33:08;5.53;;;4.80;;
21297;SDS011;10808;48.010;11.326;2022-08-18T07:35:47;5.90;;;4.97;;
21297;SDS011;10808;48.010;11.326;2022-08-18T07:38:24;5.40;;;4.90;;
21297;SDS011;10808;48.010;11.326;2022-08-18T07:40:58;5.75;;;5.15;;
21297;SDS011;10808;48.010;11.326;2022-08-18T07:43:32;5.40;;;4.75;;
21297;SDS011;10808;48.010;11.326;2022-08-18T07:46:14;5.03;;;4.53;;
21297;SDS011;10808;48.010;11.326;2022-08-18T07:48:54;4.60;;;4.15;;
21297;SDS011;10808;48.010;11.326;2022-08-18T07:51:43;5.32;;;4.82;;
21297;SDS011;10808;48.010;11.326;2022-08-18T07:57:04;5.07;;;4.57;;
21297;SDS011;10808;48.010;11.326;2022-08-18T08:00:00;5.73;;;4.90;;
21297;SDS011;10808;48.010;11.326;2022-08-18T08:05:20;5.63;;;5.03;;
21297;SDS011;10808;48.010;11.326;2022-08-18T08:08:03;5.68;;;4.80;;
21297;SDS011;10808;48.010;11.326;2022-08-18T08:16:22;5.30;;;4.65;;
21297;SDS011;10808;48.010;11.326;2022-08-18T08:22:00;5.68;;;5.03;;
21297;SDS011;10808;48.010;11.326;2022-08-18T08:24:38;4.63;;;4.22;;
21297;SDS011;10808;48.010;11.326;2022-08-18T08:29:52;6.78;;;5.25;;
21297;SDS011;10808;48.010;11.326;2022-08-18T08:32:33;5.53;;;5.03;;
21297;SDS011;10808;48.010;11.326;2022-08-18T08:35:07;6.00;;;5.40;;
21297;SDS011;10808;48.010;11.326;2022-08-18T08:37:50;7.40;;;5.45;;
21297;SDS011;10808;48.010;11.326;2022-08-18T08:40:25;6.60;;;5.43;;
21297;SDS011;10808;48.010;11.326;2022-08-18T08:43:09;6.18;;;5.15;;
21297;SDS011;10808;48.010;11.326;2022-08-18T08:45:44;6.35;;;5.28;;
21297;SDS011;10808;48.010;11.326;2022-08-18T08:48:28;6.93;;;4.90;;
21297;SDS011;10808;48.010;11.326;2022-08-18T08:50:59;6.00;;;5.40;;
21297;SDS011;10808;48.010;11.326;2022-08-18T08:56:00;5.63;;;5.13;;
21297;SDS011;10808;48.010;11.326;2022-08-18T08:58:34;6.35;;;5.75;;
21297;SDS011;10808;48.010;11.326;2022-08-18T09:01:02;5.85;;;5.35;;
21297;SDS011;10808;48.010;11.326;2022-08-18T09:03:42;7.00;;;6.30;;
21297;SDS011;10808;48.010;11.326;2022-08-18T09:09:40;6.30;;;5.70;;
21297;SDS011;10808;48.010;11.326;2022-08-18T09:15:02;6.38;;;5.78;;
21297;SDS011;10808;48.010;11.326;2022-08-18T09:20:52;7.38;;;5.85;;
21297;SDS011;10808;48.010;11.326;2022-08-18T09:23:22;6.72;;;6.13;;
21297;SDS011;10808;48.010;11.326;2022-08-18T09:25:56;7.63;;;5.78;;
21297;SDS011;10808;48.010;11.326;2022-08-18T09:38:55;8.07;;;6.20;;
21297;SDS011;10808;48.010;11.326;2022-08-18T09:41:55;7.45;;;6.38;;
21297;SDS011;10808;48.010;11.326;2022-08-18T09:52:59;6.53;;;5.80;;
21297;SDS011;10808;48.010;11.326;2022-08-18T09:55:56;6.37;;;5.47;;
21297;SDS011;10808;48.010;11.326;2022-08-18T10:06:54;8.10;;;5.95;;
21297;SDS011;10808;48.010;11.326;2022-08-18T10:15:29;7.45;;;5.70;;
21297;SDS011;10808;48.010;11.326;2022-08-18T10:21:08;10.98;;;6.22;;
21297;SDS011;10808;48.010;11.326;2022-08-18T10:28:57;9.15;;;5.85;;
21297;SDS011;10808;48.010;11.326;2022-08-18T10:31:24;6.05;;;5.45;;
21297;SDS011;10808;48.010;11.326;2022-08-18T10:33:58;6.95;;;5.90;;
21297;SDS011;10808;48.010;11.326;2022-08-18T10:36:38;5.97;;;5.38;;
21297;SDS011;10808;48.010;11.326;2022-08-18T10:39:22;8.40;;;5.80;;
21297;SDS011;10808;48.010;11.326;2022-08-18T10:44:40;7.68;;;5.97;;
21297;SDS011;10808;48.010;11.326;2022-08-18T10:47:22;7.55;;;6.20;;
21297;SDS011;10808;48.010;11.326;2022-08-18T10:49:51;6.30;;;5.70;;
21297;SDS011;10808;48.010;11.326;2022-08-18T11:01:01;8.75;;;6.25;;
21297;SDS011;10808;48.010;11.326;2022-08-18T11:03:41;7.03;;;6.30;;
21297;SDS011;10808;48.010;11.326;2022-08-18T11:06:16;8.88;;;6.78;;
21297;SDS011;10808;48.010;11.326;2022-08-18T11:08:46;7.10;;;6.40;;
21297;SDS011;10808;48.010;11.326;2022-08-18T11:11:18;7.93;;;6.25;;
21297;SDS011;10808;48.010;11.326;2022-08-18T11:13:50;8.77;;;6.30;;
21297;SDS011;10808;48.010;11.326;2022-08-18T11:16:31;7.13;;;6.13;;
21297;SDS011;10808;48.010;11.326;2022-08-18T11:19:21;7.25;;;6.43;;
21297;SDS011;10808;48.010;11.326;2022-08-18T11:21:48;7.18;;;6.38;;
21297;SDS011;10808;48.010;11.326;2022-08-18T11:24:17;9.35;;;6.25;;
21297;SDS011;10808;48.010;11.326;2022-08-18T11:29:30;7.63;;;6.28;;
21297;SDS011;10808;48.010;11.326;2022-08-18T11:32:01;7.87;;;5.97;;
21297;SDS011;10808;48.010;11.326;2022-08-18T11:34:52;7.10;;;5.80;;
21297;SDS011;10808;48.010;11.326;2022-08-18T11:37:44;6.63;;;5.85;;
21297;SDS011;10808;48.010;11.326;2022-08-18T11:42:59;6.18;;;5.63;;
21297;SDS011;10808;48.010;11.326;2022-08-18T11:48:10;8.05;;;5.68;;
21297;SDS011;10808;48.010;11.326;2022-08-18T11:53:37;6.82;;;6.22;;
21297;SDS011;10808;48.010;11.326;2022-08-18T12:01:28;6.40;;;5.38;;
21297;SDS011;10808;48.010;11.326;2022-08-18T12:06:38;6.22;;;5.63;;
21297;SDS011;10808;48.010;11.326;2022-08-18T12:09:17;7.63;;;5.30;;
21297;SDS011;10808;48.010;11.326;2022-08-18T12:14:57;6.75;;;5.53;;
21297;SDS011;10808;48.010;11.326;2022-08-18T12:17:48;6.80;;;5.10;;
21297;SDS011;10808;48.010;11.326;2022-08-18T12:20:15;6.78;;;5.30;;
21297;SDS011;10808;48.010;11.326;2022-08-18T12:22:42;6.65;;;5.75;;
21297;SDS011;10808;48.010;11.326;2022-08-18T12:25:11;5.53;;;4.78;;
21297;SDS011;10808;48.010;11.326;2022-08-18T12:27:40;6.68;;;5.22;;
21297;SDS011;10808;48.010;11.326;2022-08-18T12:30:07;6.25;;;5.65;;
21297;SDS011;10808;48.010;11.326;2022-08-18T12:32:35;7.45;;;5.50;;
21297;SDS011;10808;48.010;11.326;2022-08-18T12:35:02;5.80;;;5.20;;
21297;SDS011;10808;48.010;11.326;2022-08-18T12:37:29;8.13;;;5.10;;
21297;SDS011;10808;48.010;11.326;2022-08-18T12:39:56;6.37;;;4.93;;
21297;SDS011;10808;48.010;11.326;2022-08-18T12:42:24;6.53;;;4.72;;
21297;SDS011;10808;48.010;11.326;2022-08-18T12:44:51;5.35;;;4.70;;
21297;SDS011;10808;48.010;11.326;2022-08-18T12:47:19;8.68;;;5.35;;
21297;SDS011;10808;48.010;11.326;2022-08-18T12:49:47;6.72;;;5.88;;
21297;SDS011;10808;48.010;11.326;2022-08-18T12:52:13;6.77;;;5.53;;
21297;SDS011;10808;48.010;11.326;2022-08-18T12:54:39;6.07;;;5.20;;
21297;SDS011;10808;48.010;11.326;2022-08-18T12:57:10;7.07;;;5.30;;
21297;SDS011;10808;48.010;11.326;2022-08-18T12:59:44;6.70;;;4.90;;
21297;SDS011;10808;48.010;11.326;2022-08-18T13:02:11;6.80;;;6.07;;
21297;SDS011;10808;48.010;11.326;2022-08-18T13:04:37;7.25;;;5.65;;
21297;SDS011;10808;48.010;11.326;2022-08-18T13:07:04;7.00;;;5.53;;
21297;SDS011;10808;48.010;11.326;2022-08-18T13:09:34;6.90;;;5.30;;
21297;SDS011;10808;48.010;11.326;2022-08-18T13:12:01;7.22;;;6.45;;
21297;SDS011;10808;48.010;11.326;2022-08-18T13:14:27;6.88;;;5.63;;
21297;SDS011;10808;48.010;11.326;2022-08-18T13:16:53;7.63;;;5.80;;
21297;SDS011;10808;48.010;11.326;2022-08-18T13:19:19;5.50;;;5.00;;
21297;SDS011;10808;48.010;11.326;2022-08-18T13:21:45;7.57;;;5.95;;
21297;SDS011;10808;48.010;11.326;2022-08-18T13:24:12;7.50;;;6.07;;
21297;SDS011;10808;48.010;11.326;2022-08-18T13:26:40;6.88;;;5.78;;
21297;SDS011;10808;48.010;11.326;2022-08-18T13:29:08;7.03;;;6.05;;
21297;SDS011;10808;48.010;11.326;2022-08-18T13:31:35;9.27;;;5.57;;
21297;SDS011;10808;48.010;11.326;2022-08-18T13:34:02;5.83;;;5.17;;
21297;SDS011;10808;48.010;11.326;2022-08-18T13:36:31;7.10;;;6.00;;
21297;SDS011;10808;48.010;11.326;2022-08-18T13:39:10;7.00;;;6.30;;
21297;SDS011;10808;48.010;11.326;2022-08-18T13:41:41;7.53;;;6.60;;
21297;SDS011;10808;48.010;11.326;2022-08-18T13:44:08;7.30;;;5.90;;
21297;SDS011;10808;48.010;11.326;2022-08-18T13:46:39;6.85;;;6.00;;
21297;SDS011;10808;48.010;11.326;2022-08-18T13:49:12;6.70;;;6.10;;
21297;SDS011;10808;48.010;11.326;2022-08-18T13:51:41;7.28;;;6.20;;
21297;SDS011;10808;48.010;11.326;2022-08-18T13:54:09;7.28;;;5.70;;
21297;SDS011;10808;48.010;11.326;2022-08-18T13:56:47;7.10;;;6.40;;
21297;SDS011;10808;48.010;11.326;2022-08-18T13:59:14;8.15;;;5.80;;
21297;SDS011;10808;48.010;11.326;2022-08-18T14:01:41;6.82;;;6.10;;
21297;SDS011;10808;48.010;11.326;2022-08-18T14:04:10;6.63;;;5.93;;
21297;SDS011;10808;48.010;11.326;2022-08-18T14:06:37;7.30;;;6.25;;
21297;SDS011;10808;48.010;11.326;2022-08-18T14:09:04;8.15;;;6.30;;
21297;SDS011;10808;48.010;11.326;2022-08-18T14:11:31;7.53;;;6.63;;
21297;SDS011;10808;48.010;11.326;2022-08-18T14:13:58;7.30;;;6.37;;
21297;SDS011;10808;48.010;11.326;2022-08-18T14:16:25;8.25;;;6.28;;
21297;SDS011;10808;48.010;11.326;2022-08-18T14:18:52;8.00;;;5.80;;
21297;SDS011;10808;48.010;11.326;2022-08-18T14:21:39;8.98;;;6.25;;
21297;SDS011;10808;48.010;11.326;2022-08-18T14:24:27;7.70;;;6.40;;
21297;SDS011;10808;48.010;11.326;2022-08-18T14:27:12;10.35;;;6.10;;
21297;SDS011;10808;48.010;11.326;2022-08-18T14:29:38;9.35;;;6.40;;
21297;SDS011;10808;48.010;11.326;2022-08-18T14:32:06;9.75;;;7.00;;
21297;SDS011;10808;48.010;11.326;2022-08-18T14:34:33;10.00;;;7.20;;
21297;SDS011;10808;48.010;11.326;2022-08-18T14:37:00;9.10;;;5.93;;
21297;SDS011;10808;48.010;11.326;2022-08-18T14:39:26;7.33;;;6.23;;
21297;SDS011;10808;48.010;11.326;2022-08-18T14:41:53;7.47;;;6.18;;
21297;SDS011;10808;48.010;11.326;2022-08-18T14:44:21;9.23;;;6.55;;
21297;SDS011;10808;48.010;11.326;2022-08-18T14:46:48;7.03;;;5.85;;
21297;SDS011;10808;48.010;11.326;2022-08-18T14:49:14;7.45;;;6.28;;
21297;SDS011;10808;48.010;11.326;2022-08-18T14:51:40;9.15;;;5.80;;
21297;SDS011;10808;48.010;11.326;2022-08-18T14:54:10;7.55;;;6.05;;
21297;SDS011;10808;48.010;11.326;2022-08-18T14:56:36;6.80;;;6.10;;
21297;SDS011;10808;48.010;11.326;2022-08-18T14:59:03;9.88;;;6.47;;
21297;SDS011;10808;48.010;11.326;2022-08-18T15:01:37;8.40;;;6.38;;
21297;SDS011;10808;48.010;11.326;2022-08-18T15:04:03;6.95;;;6.25;;
21297;SDS011;10808;48.010;11.326;2022-08-18T15:06:29;8.02;;;6.38;;
21297;SDS011;10808;48.010;11.326;2022-08-18T15:08:56;10.17;;;6.70;;
21297;SDS011;10808;48.010;11.326;2022-08-18T15:11:23;8.43;;;6.15;;
21297;SDS011;10808;48.010;11.326;2022-08-18T15:13:49;7.45;;;6.63;;
21297;SDS011;10808;48.010;11.326;2022-08-18T15:16:16;7.43;;;6.72;;
21297;SDS011;10808;48.010;11.326;2022-08-18T15:18:42;7.97;;;6.50;;
21297;SDS011;10808;48.010;11.326;2022-08-18T15:21:10;8.68;;;6.28;;
21297;SDS011;10808;48.010;11.326;2022-08-18T15:23:54;7.57;;;6.43;;
21297;SDS011;10808;48.010;11.326;2022-08-18T15:26:39;7.80;;;6.70;;
21297;SDS011;10808;48.010;11.326;2022-08-18T15:29:08;9.10;;;6.68;;
21297;SDS011;10808;48.010;11.326;2022-08-18T15:31:35;9.82;;;7.22;;
21297;SDS011;10808;48.010;11.326;2022-08-18T15:34:02;9.13;;;6.97;;
21297;SDS011;10808;48.010;11.326;2022-08-18T15:36:30;8.43;;;6.88;;
21297;SDS011;10808;48.010;11.326;2022-08-18T15:38:57;8.98;;;6.90;;
21297;SDS011;10808;48.010;11.326;2022-08-18T15:41:35;7.13;;;6.50;;
21297;SDS011;10808;48.010;11.326;2022-08-18T15:44:04;8.80;;;6.85;;
21297;SDS011;10808;48.010;11.326;2022-08-18T15:46:32;12.32;;;7.18;;
21297;SDS011;10808;48.010;11.326;2022-08-18T15:49:01;10.63;;;6.90;;
21297;SDS011;10808;48.010;11.326;2022-08-18T15:51:31;7.97;;;7.18;;
21297;SDS011;10808;48.010;11.326;2022-08-18T15:54:01;8.55;;;6.60;;
21297;SDS011;10808;48.010;11.326;2022-08-18T15:56:28;8.98;;;7.38;;
21297;SDS011;10808;48.010;11.326;2022-08-18T15:58:56;11.52;;;6.85;;
21297;SDS011;10808;48.010;11.326;2022-08-18T16:01:23;8.07;;;7.22;;
21297;SDS011;10808;48.010;11.326;2022-08-18T16:03:50;8.73;;;7.88;;
21297;SDS011;10808;48.010;11.326;2022-08-18T16:06:21;9.87;;;7.57;;
21297;SDS011;10808;48.010;11.326;2022-08-18T16:08:49;8.35;;;7.38;;
21297;SDS011;10808;48.010;11.326;2022-08-18T16:11:17;9.68;;;7.60;;
21297;SDS011;10808;48.010;11.326;2022-08-18T16:13:46;9.52;;;7.65;;
21297;SDS011;10808;48.010;11.326;2022-08-18T16:16:14;8.93;;;7.27;;
21297;SDS011;10808;48.010;11.326;2022-08-18T16:18:46;9.80;;;7.90;;
21297;SDS011;10808;48.010;11.326;2022-08-18T16:21:15;11.35;;;7.97;;
21297;SDS011;10808;48.010;11.326;2022-08-18T16:23:44;9.30;;;7.70;;
21297;SDS011;10808;48.010;11.326;2022-08-18T16:26:12;9.38;;;8.00;;
21297;SDS011;10808;48.010;11.326;2022-08-18T16:28:41;10.57;;;8.55;;
21297;SDS011;10808;48.010;11.326;2022-08-18T16:31:10;9.35;;;8.27;;
21297;SDS011;10808;48.010;11.326;2022-08-18T16:33:41;12.55;;;7.93;;
21297;SDS011;10808;48.010;11.326;2022-08-18T16:36:08;11.53;;;8.13;;
21297;SDS011;10808;48.010;11.326;2022-08-18T16:38:36;11.15;;;8.05;;
21297;SDS011;10808;48.010;11.326;2022-08-18T16:41:04;10.57;;;7.80;;
21297;SDS011;10808;48.010;11.326;2022-08-18T16:43:32;11.93;;;9.57;;
21297;SDS011;10808;48.010;11.326;2022-08-18T16:45:58;13.53;;;10.30;;
21297;SDS011;10808;48.010;11.326;2022-08-18T16:48:29;22.80;;;13.50;;
21297;SDS011;10808;48.010;11.326;2022-08-18T16:50:55;22.13;;;13.77;;
21297;SDS011;10808;48.010;11.326;2022-08-18T16:53:22;15.75;;;12.80;;
21297;SDS011;10808;48.010;11.326;2022-08-18T16:55:48;11.52;;;9.85;;
21297;SDS011;10808;48.010;11.326;2022-08-18T16:58:14;11.75;;;9.20;;
21297;SDS011;10808;48.010;11.326;2022-08-18T17:00:59;11.02;;;8.02;;
21297;SDS011;10808;48.010;11.326;2022-08-18T17:03:45;7.40;;;6.25;;
21297;SDS011;10808;48.010;11.326;2022-08-18T17:06:30;6.05;;;4.07;;
21297;SDS011;10808;48.010;11.326;2022-08-18T17:08:56;5.00;;;4.07;;
21297;SDS011;10808;48.010;11.326;2022-08-18T17:11:23;6.82;;;4.50;;